Time;durP1;ratioP1;P1;durP2;ratioP2;P2;SDS_P1;SDS_P2;PMS_P1;PMS_P2;Temp;Humidity;BMP_temperature;BMP_pressure;BME280_temperature;BME280_humidity;BME280_pressure;Samples;Min_cycle;Max_cycle;Signal;HPM_P1;HPM_P2
2022/02/03 00:01:24;;;;;;;;;78.25;58.50;;;;;;;;5062343;28;51236;-54
2022/02/03 00:04:14;;;;;;;;;69.75;52.25;;;;;;;;5062277;28;51939;-55
2022/02/03 00:07:03;;;;;;;;;75.50;54.75;;;;;;;;5062034;28;51097;-54
2022/02/03 00:25:26;;;;;;;;;75.00;56.25;;;;;;;;5061581;28;52222;-51
2022/02/03 00:28:16;;;;;;;;;71.75;54.75;;;;;;;;5051327;28;51147;-54
2022/02/03 00:31:22;;;;;;;;;73.50;50.75;;;;;;;;5058878;28;51562;-53
2022/02/03 00:34:14;;;;;;;;;71.25;51.00;;;;;;;;5061616;28;51426;-54
2022/02/03 00:49:00;;;;;;;;;74.75;51.25;;;;;;;;5061562;28;51534;-54
2022/02/03 00:51:49;;;;;;;;;79.00;57.00;;;;;;;;5061292;28;51175;-52
2022/02/03 00:54:34;;;;;;;;;75.50;51.75;;;;;;;;5061565;28;51018;-50
2022/02/03 00:57:29;;;;;;;;;74.00;53.00;;;;;;;;5061190;28;51138;-54
2022/02/03 01:00:15;;;;;;;;;70.75;54.25;;;;;;;;5052996;28;51131;-52
2022/02/03 01:03:07;;;;;;;;;73.50;55.75;;;;;;;;5061427;28;51463;-52
2022/02/03 01:05:52;;;;;;;;;70.25;52.00;;;;;;;;5060924;28;51052;-53
2022/02/03 01:08:41;;;;;;;;;69.25;50.25;;;;;;;;5061290;28;51339;-54
2022/02/03 01:11:36;;;;;;;;;74.50;54.50;;;;;;;;5060465;28;51165;-53
2022/02/03 01:14:32;;;;;;;;;66.50;50.50;;;;;;;;5061212;28;51106;-49
2022/02/03 01:17:39;;;;;;;;;75.50;57.75;;;;;;;;5060928;28;51118;-54
2022/02/03 01:45:48;;;;;;;;;74.25;58.00;;;;;;;;5017524;28;51191;-56
2022/02/03 01:48:51;;;;;;;;;72.50;53.25;;;;;;;;5040217;28;51041;-53
2022/02/03 01:54:25;;;;;;;;;78.25;57.00;;;;;;;;5040199;28;51030;-53
2022/02/03 01:57:17;;;;;;;;;75.75;54.25;;;;;;;;5039937;28;51079;-55
2022/02/03 02:00:21;;;;;;;;;71.75;54.75;;;;;;;;5039662;28;51008;-53
2022/02/03 02:03:08;;;;;;;;;73.75;56.00;;;;;;;;5039776;28;51229;-49
2022/02/03 02:05:53;;;;;;;;;74.50;55.25;;;;;;;;5039998;28;51159;-52
2022/02/03 02:08:42;;;;;;;;;73.00;52.50;;;;;;;;5039789;28;51449;-54
2022/02/03 02:11:34;;;;;;;;;69.50;51.00;;;;;;;;5027661;28;51305;-49
2022/02/03 02:18:08;;;;;;;;;71.75;51.50;;;;;;;;5019254;28;51576;-54
2022/02/03 02:39:20;;;;;;;;;48.00;33.00;;;;;;;;5019195;28;51089;-54
2022/02/03 02:45:06;;;;;;;;;72.50;53.00;;;;;;;;5018957;28;51441;-54
2022/02/03 02:48:09;;;;;;;;;68.50;52.75;;;;;;;;5040803;28;51101;-53
2022/02/03 02:51:06;;;;;;;;;73.25;54.25;;;;;;;;5059392;28;51607;-55
2022/02/03 03:35:55;;;;;;;;;83.50;73.50;;;;;;;;5058857;28;51086;-56
2022/02/03 03:38:42;;;;;;;;;96.25;79.25;;;;;;;;5055259;28;51194;-51
2022/02/03 03:41:31;;;;;;;;;96.50;76.25;;;;;;;;5062855;28;51060;-54
2022/02/03 03:44:18;;;;;;;;;98.25;81.00;;;;;;;;5048663;28;51157;-54
2022/02/03 03:47:04;;;;;;;;;95.50;79.25;;;;;;;;5056710;28;51239;-55
2022/02/03 03:49:51;;;;;;;;;88.75;77.25;;;;;;;;5062413;28;51934;-49
2022/02/03 03:52:44;;;;;;;;;98.75;80.25;;;;;;;;5062266;28;51098;-56
2022/02/03 03:55:48;;;;;;;;;91.50;76.75;;;;;;;;5062506;28;51505;-53
2022/02/03 04:33:51;;;;;;;;;97.25;73.75;;;;;;;;5060112;28;51098;-50
2022/02/03 04:37:21;;;;;;;;;93.50;80.00;;;;;;;;5057747;28;51257;-57
2022/02/03 04:43:32;;;;;;;;;100.50;80.25;;;;;;;;5055545;28;51118;-53
2022/02/03 04:56:30;;;;;;;;;100.50;84.25;;;;;;;;5052192;28;51225;-55
2022/02/03 05:02:51;;;;;;;;;96.75;78.75;;;;;;;;5051924;28;52029;-56
2022/02/03 05:06:12;;;;;;;;;99.50;88.75;;;;;;;;5056757;28;51088;-53
2022/02/03 05:09:18;;;;;;;;;96.50;90.00;;;;;;;;5057273;28;51327;-57
2022/02/03 05:12:30;;;;;;;;;101.50;89.25;;;;;;;;5051858;28;51085;-56
2022/02/03 05:25:13;;;;;;;;;114.50;105.25;;;;;;;;5054059;28;51158;-54
2022/02/03 05:35:15;;;;;;;;;123.00;98.50;;;;;;;;5058108;28;51103;-54
2022/02/03 05:47:46;;;;;;;;;118.75;101.50;;;;;;;;5049329;28;51137;-54
2022/02/03 05:50:41;;;;;;;;;128.25;110.25;;;;;;;;5052163;28;51502;-51
2022/02/03 06:05:46;;;;;;;;;170.25;143.75;;;;;;;;5052015;28;51134;-56
2022/02/03 06:08:53;;;;;;;;;153.25;127.25;;;;;;;;5040041;28;51127;-53
2022/02/03 06:14:55;;;;;;;;;139.75;112.00;;;;;;;;5052638;28;51319;-54
2022/02/03 06:29:51;;;;;;;;;153.75;136.00;;;;;;;;5041850;28;51183;-55
2022/02/03 06:32:39;;;;;;;;;146.75;126.50;;;;;;;;5045530;28;51087;-53
2022/02/03 06:35:23;;;;;;;;;163.25;139.25;;;;;;;;5044193;28;51191;-51
2022/02/03 06:38:08;;;;;;;;;164.50;138.25;;;;;;;;5049072;28;51538;-50
2022/02/03 06:40:52;;;;;;;;;167.50;153.25;;;;;;;;5058795;28;51543;-53
2022/02/03 06:43:36;;;;;;;;;145.25;123.75;;;;;;;;5048516;28;51625;-50
2022/02/03 06:46:23;;;;;;;;;160.00;146.50;;;;;;;;5053485;28;51141;-52
2022/02/03 06:49:21;;;;;;;;;177.25;153.25;;;;;;;;5059345;28;51082;-47
2022/02/03 06:52:15;;;;;;;;;190.25;167.25;;;;;;;;5058954;28;51068;-52
2022/02/03 06:55:17;;;;;;;;;171.75;147.25;;;;;;;;5058855;28;51139;-56
2022/02/03 06:58:12;;;;;;;;;177.00;150.75;;;;;;;;5058781;28;51029;-54
2022/02/03 07:01:09;;;;;;;;;173.00;147.50;;;;;;;;5038516;28;51180;-52
2022/02/03 07:03:59;;;;;;;;;168.25;138.00;;;;;;;;5058430;28;51352;-53
2022/02/03 07:06:44;;;;;;;;;182.25;156.25;;;;;;;;5050195;28;51384;-51
2022/02/03 07:09:29;;;;;;;;;169.25;150.00;;;;;;;;5062125;28;51329;-54
2022/02/03 07:12:14;;;;;;;;;164.50;147.75;;;;;;;;5062123;28;51151;-51
2022/02/03 07:15:00;;;;;;;;;176.25;146.75;;;;;;;;5056570;28;51134;-56
2022/02/03 07:17:45;;;;;;;;;174.00;148.75;;;;;;;;5060120;28;51910;-54
2022/02/03 07:20:30;;;;;;;;;168.25;139.75;;;;;;;;5045985;27;51238;-56
2022/02/03 07:23:15;;;;;;;;;161.25;133.75;;;;;;;;5050592;28;55487;-54
2022/02/03 07:25:59;;;;;;;;;138.50;119.00;;;;;;;;5050697;28;51132;-51
2022/02/03 07:28:44;;;;;;;;;164.25;144.00;;;;;;;;5059890;28;51040;-55
2022/02/03 07:31:28;;;;;;;;;147.25;128.25;;;;;;;;5062530;28;51222;-44
2022/02/03 07:34:15;;;;;;;;;141.75;132.50;;;;;;;;5062528;28;51150;-52
2022/02/03 07:36:59;;;;;;;;;150.50;132.00;;;;;;;;5054729;28;51167;-46
2022/02/03 07:39:44;;;;;;;;;141.75;122.00;;;;;;;;5051020;28;51137;-48
2022/02/03 07:42:28;;;;;;;;;141.25;123.00;;;;;;;;5053952;28;51144;-50
2022/02/03 07:45:14;;;;;;;;;151.75;129.25;;;;;;;;5060137;28;51072;-52
2022/02/03 07:47:58;;;;;;;;;136.00;118.00;;;;;;;;5050376;28;51184;-46
2022/02/03 07:50:42;;;;;;;;;140.00;113.00;;;;;;;;5055399;28;51198;-48
2022/02/03 07:53:26;;;;;;;;;147.25;127.75;;;;;;;;5051465;28;51543;-49
2022/02/03 07:56:11;;;;;;;;;139.00;120.50;;;;;;;;5056690;28;51332;-47
2022/02/03 07:58:56;;;;;;;;;118.00;100.25;;;;;;;;5050962;28;51205;-49
2022/02/03 08:01:40;;;;;;;;;121.25;104.25;;;;;;;;5058942;28;51208;-50
2022/02/03 08:04:29;;;;;;;;;117.25;102.25;;;;;;;;5057897;28;51075;-45
2022/02/03 08:07:16;;;;;;;;;127.25;106.75;;;;;;;;5056361;28;51538;-50
2022/02/03 08:10:06;;;;;;;;;128.00;107.25;;;;;;;;5057689;28;51321;-50
2022/02/03 08:12:50;;;;;;;;;113.00;97.75;;;;;;;;5061979;28;51205;-46
2022/02/03 08:15:37;;;;;;;;;117.50;101.75;;;;;;;;5053062;28;51288;-49
2022/02/03 08:18:21;;;;;;;;;104.25;90.25;;;;;;;;5050274;28;51482;-50
2022/02/03 08:21:09;;;;;;;;;105.50;91.50;;;;;;;;5061451;28;51182;-46
2022/02/03 08:32:16;;;;;;;;;108.25;96.50;;;;;;;;5057750;28;51359;-47
2022/02/03 08:38:00;;;;;;;;;112.50;95.00;;;;;;;;5060528;28;51229;-49
2022/02/03 08:43:35;;;;;;;;;125.50;107.50;;;;;;;;5056531;28;51595;-49
2022/02/03 08:46:24;;;;;;;;;113.50;91.00;;;;;;;;5061372;28;51098;-48
2022/02/03 08:49:09;;;;;;;;;105.00;102.25;;;;;;;;5044546;28;51746;-47
2022/02/03 08:51:55;;;;;;;;;122.50;102.00;;;;;;;;5052591;28;51553;-50
2022/02/03 08:54:47;;;;;;;;;104.75;97.75;;;;;;;;5056099;28;51239;-45
2022/02/03 09:40:12;;;;;;;;;104.50;86.00;;;;;;;;5052580;28;51027;-50
2022/02/03 10:00:45;;;;;;;;;94.50;81.75;;;;;;;;5058365;28;51152;-47
2022/02/03 10:03:37;;;;;;;;;96.75;83.50;;;;;;;;5058925;28;51398;-47
2022/02/03 10:06:26;;;;;;;;;101.50;82.25;;;;;;;;5050346;28;51094;-45
2022/02/03 10:09:10;;;;;;;;;110.00;86.75;;;;;;;;5047079;28;51101;-48
2022/02/03 10:12:03;;;;;;;;;94.25;80.25;;;;;;;;5058127;28;53108;-50
2022/02/03 10:14:48;;;;;;;;;97.50;85.50;;;;;;;;5058640;28;51162;-46
2022/02/03 10:17:33;;;;;;;;;101.75;84.75;;;;;;;;5058220;28;51132;-50
2022/02/03 10:20:21;;;;;;;;;96.75;76.25;;;;;;;;5057996;28;51048;-46
2022/02/03 10:23:10;;;;;;;;;96.25;81.75;;;;;;;;5057226;28;51411;-48
2022/02/03 10:26:04;;;;;;;;;108.25;87.75;;;;;;;;5058724;28;51264;-47
2022/02/03 10:28:54;;;;;;;;;109.00;101.25;;;;;;;;5043344;28;51482;-49
2022/02/03 10:31:40;;;;;;;;;121.50;100.50;;;;;;;;5057397;28;51177;-48
2022/02/03 10:34:30;;;;;;;;;96.00;87.25;;;;;;;;5049833;28;51126;-47
2022/02/03 10:46:44;;;;;;;;;89.75;80.00;;;;;;;;5058978;28;51433;-48
2022/02/03 11:06:41;;;;;;;;;93.50;76.75;;;;;;;;5046622;28;51317;-49
2022/02/03 11:09:23;;;;;;;;;98.00;83.25;;;;;;;;5054094;28;51512;-50
2022/02/03 11:12:11;;;;;;;;;103.00;88.00;;;;;;;;5055341;28;51481;-46
2022/02/03 11:14:57;;;;;;;;;98.25;86.00;;;;;;;;5043500;28;51114;-48
2022/02/03 11:17:42;;;;;;;;;97.75;77.00;;;;;;;;5056266;28;51066;-47
2022/02/03 11:20:29;;;;;;;;;85.00;76.75;;;;;;;;5041864;28;51406;-50
2022/02/03 11:23:51;;;;;;;;;89.00;72.75;;;;;;;;5057136;28;51056;-47
2022/02/03 11:26:38;;;;;;;;;80.75;68.75;;;;;;;;5058177;28;51636;-48
2022/02/03 11:32:25;;;;;;;;;41.75;19.00;;;;;;;;5047706;28;51171;-49
2022/02/03 11:44:21;;;;;;;;;84.75;72.75;;;;;;;;5023789;28;51302;-47
2022/02/03 11:48:02;;;;;;;;;91.25;78.75;;;;;;;;5057908;28;51429;-47
2022/02/03 11:56:53;;;;;;;;;80.75;74.25;;;;;;;;5053556;28;51144;-48
2022/02/03 12:02:53;;;;;;;;;100.75;85.25;;;;;;;;5062223;28;51510;-51
2022/02/03 12:17:15;;;;;;;;;89.00;75.50;;;;;;;;5059176;28;51180;-49
2022/02/03 12:20:13;;;;;;;;;97.75;78.75;;;;;;;;5061763;28;51476;-45
2022/02/03 12:25:50;;;;;;;;;101.00;81.25;;;;;;;;5041916;28;51018;-49
2022/02/03 12:28:53;;;;;;;;;86.25;74.00;;;;;;;;5061323;28;51142;-49
2022/02/03 12:31:54;;;;;;;;;78.50;74.25;;;;;;;;5061824;28;51402;-49
2022/02/03 12:43:36;;;;;;;;;80.25;68.75;;;;;;;;5050266;28;51287;-45
2022/02/03 12:46:20;;;;;;;;;87.75;74.25;;;;;;;;5054421;28;51528;-49
2022/02/03 12:49:05;;;;;;;;;89.25;70.25;;;;;;;;5061045;28;51171;-48
2022/02/03 12:51:50;;;;;;;;;87.00;65.75;;;;;;;;5061436;28;51592;-46
2022/02/03 12:54:34;;;;;;;;;80.00;67.00;;;;;;;;5061087;28;51177;-49
2022/02/03 12:57:26;;;;;;;;;76.00;61.25;;;;;;;;5061310;28;51131;-52
2022/02/03 13:00:14;;;;;;;;;78.25;60.00;;;;;;;;5045423;28;51092;-47
2022/02/03 13:03:01;;;;;;;;;74.50;58.75;;;;;;;;5060934;28;51059;-51
2022/02/03 13:05:56;;;;;;;;;82.00;66.50;;;;;;;;5043991;28;51422;-48
2022/02/03 13:08:43;;;;;;;;;79.50;69.50;;;;;;;;5053132;28;51125;-47
2022/02/03 13:11:36;;;;;;;;;76.50;65.25;;;;;;;;5059573;28;51655;-48
2022/02/03 13:14:30;;;;;;;;;84.75;68.50;;;;;;;;5055891;28;51071;-50
2022/02/03 13:17:20;;;;;;;;;79.00;62.00;;;;;;;;5059438;28;51059;-50
2022/02/03 13:20:13;;;;;;;;;79.50;63.75;;;;;;;;5053408;28;51133;-49
2022/02/03 13:23:03;;;;;;;;;73.00;54.50;;;;;;;;5060977;28;51641;-48
2022/02/03 13:28:50;;;;;;;;;70.25;54.75;;;;;;;;5060812;28;51242;-47
2022/02/03 13:31:49;;;;;;;;;60.00;43.00;;;;;;;;5060380;28;51107;-47
2022/02/03 13:34:40;;;;;;;;;77.75;61.25;;;;;;;;5060541;28;51122;-46
2022/02/03 13:37:46;;;;;;;;;71.50;56.75;;;;;;;;5050389;28;51615;-47
2022/02/03 13:40:31;;;;;;;;;73.25;55.75;;;;;;;;5043620;28;51442;-47
2022/02/03 13:43:24;;;;;;;;;73.00;55.25;;;;;;;;5053882;28;51148;-50
2022/02/03 13:46:09;;;;;;;;;72.25;53.50;;;;;;;;5059636;28;51227;-48
2022/02/03 13:48:53;;;;;;;;;67.75;50.75;;;;;;;;5060114;28;51625;-48
2022/02/03 13:51:39;;;;;;;;;61.75;44.75;;;;;;;;5059854;28;51050;-50
2022/02/03 13:54:33;;;;;;;;;72.50;51.75;;;;;;;;5051063;28;52233;-46
2022/02/03 14:21:59;;;;;;;;;68.00;50.75;;;;;;;;5047869;28;51062;-49
2022/02/03 14:27:47;;;;;;;;;65.25;50.00;;;;;;;;5051760;28;52520;-49
2022/02/03 14:30:31;;;;;;;;;68.25;50.75;;;;;;;;5056799;28;51669;-48
2022/02/03 14:33:21;;;;;;;;;64.50;48.00;;;;;;;;5056087;28;51150;-50
2022/02/03 14:36:13;;;;;;;;;64.25;45.75;;;;;;;;5058807;28;51060;-48
2022/02/03 14:39:21;;;;;;;;;65.00;49.50;;;;;;;;5057241;28;51287;-49
2022/02/03 14:42:08;;;;;;;;;66.25;48.75;;;;;;;;5044488;28;51694;-50
2022/02/03 14:44:53;;;;;;;;;63.25;47.00;;;;;;;;5048754;28;51671;-48
2022/02/03 14:47:39;;;;;;;;;68.25;49.00;;;;;;;;5044310;28;51417;-47
2022/02/03 14:50:23;;;;;;;;;67.00;49.25;;;;;;;;5038992;28;51869;-46
2022/02/03 14:53:17;;;;;;;;;62.00;47.00;;;;;;;;5052894;28;51050;-47
2022/02/03 14:59:05;;;;;;;;;67.00;47.75;;;;;;;;5049728;28;51138;-47
2022/02/03 15:01:49;;;;;;;;;66.50;48.25;;;;;;;;5046066;28;51100;-47
2022/02/03 15:04:39;;;;;;;;;66.25;48.50;;;;;;;;5051049;28;51171;-51
2022/02/03 15:07:26;;;;;;;;;64.50;47.50;;;;;;;;5049447;28;51201;-49
2022/02/03 15:13:36;;;;;;;;;64.75;47.00;;;;;;;;5040244;28;51092;-51
2022/02/03 15:16:20;;;;;;;;;64.00;47.75;;;;;;;;5054707;28;52707;-48
2022/02/03 15:19:06;;;;;;;;;57.50;43.50;;;;;;;;5055084;28;51094;-47
2022/02/03 15:21:50;;;;;;;;;62.25;48.50;;;;;;;;5058537;28;51504;-48
2022/02/03 15:24:35;;;;;;;;;66.00;48.25;;;;;;;;5053310;28;51100;-46
2022/02/03 15:27:19;;;;;;;;;67.75;50.00;;;;;;;;5050537;28;51421;-50
2022/02/03 15:30:05;;;;;;;;;59.00;44.00;;;;;;;;5059956;28;51023;-44
2022/02/03 15:32:50;;;;;;;;;63.75;46.75;;;;;;;;5061192;28;52105;-47
2022/02/03 15:35:39;;;;;;;;;64.00;46.00;;;;;;;;5059466;28;51123;-51
2022/02/03 15:38:25;;;;;;;;;64.50;47.25;;;;;;;;5061609;28;51110;-48
2022/02/03 15:41:19;;;;;;;;;64.75;45.00;;;;;;;;5061013;28;51076;-48
2022/02/03 15:44:04;;;;;;;;;64.75;47.25;;;;;;;;5055403;28;51203;-47
2022/02/03 15:47:01;;;;;;;;;64.25;46.75;;;;;;;;5061073;28;51715;-46
2022/02/03 16:13:13;;;;;;;;;62.75;47.75;;;;;;;;5061682;28;51106;-46
2022/02/03 16:17:04;;;;;;;;;61.25;45.00;;;;;;;;5054246;28;51418;-51
2022/02/03 16:19:36;;;;;;;;;63.25;46.50;;;;;;;;5058559;28;51073;-48
2022/02/03 16:26:03;;;;;;;;;63.25;46.75;;;;;;;;5053320;28;51380;-48
2022/02/03 16:52:46;;;;;;;;;64.00;46.25;;;;;;;;5053220;28;51125;-44
2022/02/03 16:55:35;;;;;;;;;62.00;47.75;;;;;;;;5052950;28;51202;-44
2022/02/03 16:58:19;;;;;;;;;60.25;45.00;;;;;;;;5060529;28;51200;-48
2022/02/03 17:01:04;;;;;;;;;68.00;47.25;;;;;;;;5057899;28;51511;-45
2022/02/03 17:03:48;;;;;;;;;60.75;46.50;;;;;;;;5052150;28;51155;-48
2022/02/03 17:06:32;;;;;;;;;95.00;77.75;;;;;;;;5053932;28;51079;-48
2022/02/03 17:09:17;;;;;;;;;67.75;48.75;;;;;;;;5051660;28;51072;-49
2022/02/03 17:12:01;;;;;;;;;63.75;47.50;;;;;;;;5052682;28;51589;-49
2022/02/03 17:14:46;;;;;;;;;65.25;48.25;;;;;;;;5054067;28;51249;-50
2022/02/03 17:17:30;;;;;;;;;64.00;47.00;;;;;;;;5060771;28;51074;-46
2022/02/03 17:20:15;;;;;;;;;60.25;44.50;;;;;;;;5051904;28;51146;-47
2022/02/03 17:23:01;;;;;;;;;61.25;43.75;;;;;;;;5055111;28;51122;-49
2022/02/03 17:26:03;;;;;;;;;67.00;50.00;;;;;;;;5056834;28;51091;-47
2022/02/03 17:28:58;;;;;;;;;64.00;49.00;;;;;;;;5048546;28;51213;-46
2022/02/03 17:53:35;;;;;;;;;66.25;49.75;;;;;;;;5046473;28;51486;-47
2022/02/03 18:37:33;;;;;;;;;68.25;50.25;;;;;;;;5053835;28;52573;-54
2022/02/03 18:47:03;;;;;;;;;66.00;50.00;;;;;;;;5053173;28;51415;-51
2022/02/03 18:52:19;;;;;;;;;69.00;53.00;;;;;;;;5029171;28;51313;-51
2022/02/03 18:55:13;;;;;;;;;75.50;59.00;;;;;;;;5028683;28;51138;-52
2022/02/03 18:58:09;;;;;;;;;72.75;56.25;;;;;;;;5030336;28;51565;-53
2022/02/03 19:10:31;;;;;;;;;65.50;49.50;;;;;;;;5036482;28;51162;-53
2022/02/03 19:28:39;;;;;;;;;68.50;50.50;;;;;;;;5028389;28;51533;-47
2022/02/03 20:02:36;;;;;;;;;67.00;46.75;;;;;;;;5017493;28;51023;-46
2022/02/03 20:05:18;;;;;;;;;64.75;49.25;;;;;;;;5019138;28;51138;-47
2022/02/03 20:08:12;;;;;;;;;67.50;47.00;;;;;;;;5017430;28;51465;-49
2022/02/03 20:10:56;;;;;;;;;62.25;47.00;;;;;;;;5016627;28;51204;-45
2022/02/03 20:13:40;;;;;;;;;65.50;47.75;;;;;;;;5023870;28;51278;-49
2022/02/03 20:16:25;;;;;;;;;64.75;49.00;;;;;;;;5040699;28;51136;-46
2022/02/03 20:19:10;;;;;;;;;67.50;47.50;;;;;;;;5024209;28;51141;-46
2022/02/03 20:21:54;;;;;;;;;64.25;46.25;;;;;;;;5027980;28;51036;-50
2022/02/03 20:24:39;;;;;;;;;67.50;51.00;;;;;;;;5025745;28;51496;-48
2022/02/03 20:27:23;;;;;;;;;65.50;49.75;;;;;;;;5019498;28;51579;-46
2022/02/03 20:30:10;;;;;;;;;66.00;49.50;;;;;;;;5021109;28;51147;-48
2022/02/03 20:32:54;;;;;;;;;64.25;51.00;;;;;;;;5009491;28;51323;-50
2022/02/03 20:35:39;;;;;;;;;65.50;51.25;;;;;;;;5019952;28;51495;-50
2022/02/03 20:38:23;;;;;;;;;65.00;50.50;;;;;;;;5019660;28;51075;-50
2022/02/03 20:41:08;;;;;;;;;67.00;50.25;;;;;;;;5020054;28;51129;-50
2022/02/03 20:43:53;;;;;;;;;70.75;52.25;;;;;;;;5028967;28;51465;-48
2022/02/03 20:46:38;;;;;;;;;62.75;47.50;;;;;;;;5036016;28;51170;-51
2022/02/03 20:49:22;;;;;;;;;68.25;51.50;;;;;;;;5055469;28;51147;-50
2022/02/03 20:52:07;;;;;;;;;68.75;53.00;;;;;;;;5056034;28;51659;-50
2022/02/03 20:54:51;;;;;;;;;69.50;52.75;;;;;;;;5052587;28;51159;-50
2022/02/03 20:57:36;;;;;;;;;72.00;50.50;;;;;;;;5054679;28;51251;-51
2022/02/03 21:00:36;;;;;;;;;68.50;52.00;;;;;;;;5053688;28;51987;-49
2022/02/03 21:03:27;;;;;;;;;74.75;55.50;;;;;;;;5044388;28;51313;-50
2022/02/03 21:06:14;;;;;;;;;74.25;53.25;;;;;;;;5041464;28;51246;-50
2022/02/03 21:08:58;;;;;;;;;68.00;53.00;;;;;;;;5040584;28;51062;-48
2022/02/03 21:11:42;;;;;;;;;66.50;49.00;;;;;;;;5041032;28;51126;-46
2022/02/03 21:14:27;;;;;;;;;68.25;50.00;;;;;;;;5043013;28;51259;-52
2022/02/03 21:17:11;;;;;;;;;71.00;52.75;;;;;;;;5040888;28;51144;-48
2022/02/03 21:20:03;;;;;;;;;61.25;47.25;;;;;;;;5040686;28;51156;-50
2022/02/03 21:22:48;;;;;;;;;70.50;51.50;;;;;;;;5043793;28;51926;-51
2022/02/03 21:28:24;;;;;;;;;70.50;50.00;;;;;;;;5045392;28;51179;-53
2022/02/03 21:31:08;;;;;;;;;71.75;50.75;;;;;;;;5041653;28;51182;-48
2022/02/03 21:33:55;;;;;;;;;70.25;51.75;;;;;;;;5044970;28;51099;-49
2022/02/03 21:36:41;;;;;;;;;64.75;48.25;;;;;;;;5044042;28;51101;-47
2022/02/03 21:39:25;;;;;;;;;76.25;60.25;;;;;;;;5043504;28;51024;-48
2022/02/03 21:42:10;;;;;;;;;75.50;59.00;;;;;;;;5040549;28;51048;-48
2022/02/03 21:44:54;;;;;;;;;77.25;58.25;;;;;;;;5040613;28;51041;-50
2022/02/03 21:47:38;;;;;;;;;71.00;56.50;;;;;;;;5031070;28;51174;-50
2022/02/03 21:50:23;;;;;;;;;72.00;59.00;;;;;;;;5023364;28;51653;-52
2022/02/03 21:53:20;;;;;;;;;71.00;53.50;;;;;;;;5021339;28;51089;-48
2022/02/03 21:56:05;;;;;;;;;75.75;60.00;;;;;;;;5030309;28;51207;-47
2022/02/03 21:58:49;;;;;;;;;71.25;55.75;;;;;;;;5031063;28;51184;-51
2022/02/03 22:01:41;;;;;;;;;78.25;54.75;;;;;;;;5021062;28;51432;-47
2022/02/03 22:04:25;;;;;;;;;60.75;48.25;;;;;;;;5021364;28;52612;-49
2022/02/03 22:07:10;;;;;;;;;76.50;57.25;;;;;;;;5026934;28;51355;-51
2022/02/03 22:09:54;;;;;;;;;67.75;50.75;;;;;;;;5019176;28;51071;-46
2022/02/03 22:12:39;;;;;;;;;64.25;48.25;;;;;;;;5023944;28;51088;-53
2022/02/03 22:15:24;;;;;;;;;61.25;46.75;;;;;;;;5023909;28;51133;-48
2022/02/03 22:18:12;;;;;;;;;70.50;53.50;;;;;;;;5021283;28;51087;-49
2022/02/03 22:21:02;;;;;;;;;68.50;51.00;;;;;;;;5020785;28;51045;-48
2022/02/03 22:24:35;;;;;;;;;71.75;50.75;;;;;;;;5022871;28;51565;-50
2022/02/03 22:27:19;;;;;;;;;65.50;47.00;;;;;;;;5025574;28;51168;-50
2022/02/03 22:50:33;;;;;;;;;73.00;54.00;;;;;;;;5032661;28;51483;-49
2022/02/03 22:53:19;;;;;;;;;73.25;55.50;;;;;;;;5030930;28;51169;-54
2022/02/03 22:56:07;;;;;;;;;70.75;54.75;;;;;;;;5028485;28;51583;-48
2022/02/03 23:01:54;;;;;;;;;72.00;51.50;;;;;;;;5031155;28;51041;-51
2022/02/03 23:04:40;;;;;;;;;68.25;50.50;;;;;;;;5027522;28;51190;-49
2022/02/03 23:07:36;;;;;;;;;71.25;54.00;;;;;;;;5039253;28;51059;-56
2022/02/03 23:10:26;;;;;;;;;68.75;48.00;;;;;;;;5023751;28;51197;-50
2022/02/03 23:13:59;;;;;;;;;70.25;54.75;;;;;;;;5038583;28;51330;-48
2022/02/03 23:16:23;;;;;;;;;69.50;50.50;;;;;;;;5019632;28;51481;-49
2022/02/03 23:22:14;;;;;;;;;73.50;52.75;;;;;;;;5024060;28;51467;-47
2022/02/03 23:25:00;;;;;;;;;72.25;54.25;;;;;;;;5035231;28;51180;-48
2022/02/03 23:30:32;;;;;;;;;66.50;50.00;;;;;;;;5026059;28;51134;-47
2022/02/03 23:33:16;;;;;;;;;70.00;52.00;;;;;;;;5035605;28;51103;-47
2022/02/03 23:36:01;;;;;;;;;67.00;50.00;;;;;;;;5032720;28;51343;-45
2022/02/03 23:44:59;;;;;;;;;68.50;51.00;;;;;;;;5019392;28;51549;-48
